Time;durP1;ratioP1;P1;durP2;ratioP2;P2;SDS_P1;SDS_P2;PMS_P1;PMS_P2;Temp;Humidity;BMP_temperature;BMP_pressure;BME280_temperature;BME280_humidity;BME280_pressure;Samples;Min_cycle;Max_cycle;Signal;HPM_P1;HPM_P2
2020/12/17 00:01:09;;;;;;;13.98;7.15;;;8.70;99.90;;;;;;5033623;28;20718;-64
2020/12/17 00:03:35;;;;;;;10.93;6.35;;;8.70;99.90;;;;;;5043479;28;20130;-63
2020/12/17 00:06:01;;;;;;;12.82;7.63;;;8.70;99.90;;;;;;5041489;28;20029;-62
2020/12/17 00:08:27;;;;;;;10.80;6.32;;;8.70;99.90;;;;;;5040122;28;20021;-62
2020/12/17 00:10:52;;;;;;;13.10;6.80;;;8.60;99.90;;;;;;5045517;28;20048;-62
2020/12/17 00:13:19;;;;;;;10.88;6.70;;;8.60;99.90;;;;;;5046872;28;20556;-62
2020/12/17 00:15:45;;;;;;;11.73;7.20;;;8.60;99.90;;;;;;5044681;28;20021;-62
2020/12/17 00:18:11;;;;;;;11.75;7.03;;;8.50;99.90;;;;;;5036477;28;20037;-62
2020/12/17 00:20:36;;;;;;;12.63;6.93;;;8.50;99.90;;;;;;5048149;28;20489;-61
2020/12/17 00:23:02;;;;;;;13.68;7.30;;;8.60;99.90;;;;;;5043614;28;20026;-62
2020/12/17 00:25:28;;;;;;;7.97;5.65;;;8.60;99.90;;;;;;5034599;28;20095;-62
2020/12/17 00:27:53;;;;;;;8.85;5.72;;;8.60;99.90;;;;;;5041773;28;20052;-63
2020/12/17 00:30:20;;;;;;;10.77;7.00;;;8.70;99.90;;;;;;5046508;28;20090;-63
2020/12/17 00:32:46;;;;;;;11.40;5.80;;;8.70;99.90;;;;;;5043329;28;20596;-62
2020/12/17 00:35:13;;;;;;;11.20;5.70;;;8.70;99.90;;;;;;5042292;28;20036;-61
2020/12/17 00:37:40;;;;;;;8.57;5.90;;;8.70;99.90;;;;;;5040344;28;20053;-62
2020/12/17 00:40:12;;;;;;;9.07;5.90;;;8.70;99.90;;;;;;5036041;28;20039;-62
2020/12/17 00:42:42;;;;;;;13.73;6.72;;;8.70;99.90;;;;;;5036608;28;20021;-62
2020/12/17 00:45:08;;;;;;;10.90;6.32;;;8.70;99.90;;;;;;5017596;28;20399;-62
2020/12/17 00:47:33;;;;;;;9.13;6.45;;;8.70;99.90;;;;;;5027337;28;20052;-62
2020/12/17 00:49:59;;;;;;;7.82;5.47;;;8.70;99.90;;;;;;5033231;28;20426;-63
2020/12/17 00:52:26;;;;;;;12.18;6.25;;;8.80;99.90;;;;;;5030266;28;20065;-62
2020/12/17 00:54:54;;;;;;;8.20;5.20;;;8.80;99.90;;;;;;5044211;28;20033;-61
2020/12/17 00:57:25;;;;;;;9.73;6.07;;;8.80;99.90;;;;;;5049188;28;20028;-62
2020/12/17 00:59:51;;;;;;;10.70;5.82;;;8.80;99.90;;;;;;5039615;28;20360;-62
2020/12/17 01:02:17;;;;;;;9.73;5.60;;;8.70;99.90;;;;;;5042887;28;20037;-63
2020/12/17 01:04:42;;;;;;;11.25;6.10;;;8.70;99.90;;;;;;5040333;28;20033;-63
2020/12/17 01:07:08;;;;;;;8.00;5.60;;;8.70;99.90;;;;;;5034735;28;20017;-63
2020/12/17 01:09:34;;;;;;;9.90;5.57;;;8.60;99.90;;;;;;5032497;28;20078;-63
2020/12/17 01:11:59;;;;;;;9.60;5.25;;;8.70;99.90;;;;;;5043281;28;20108;-63
2020/12/17 01:14:25;;;;;;;9.30;5.03;;;8.70;99.90;;;;;;5048497;28;20025;-62
2020/12/17 01:16:50;;;;;;;10.25;4.82;;;8.60;99.90;;;;;;5028807;28;20029;-62
2020/12/17 01:19:16;;;;;;;6.93;5.18;;;8.60;99.90;;;;;;5039566;28;20041;-62
2020/12/17 01:21:42;;;;;;;7.07;4.20;;;8.60;99.90;;;;;;5041714;28;20033;-62
2020/12/17 01:24:08;;;;;;;9.00;4.65;;;8.60;99.90;;;;;;5042610;28;20540;-62
2020/12/17 01:26:34;;;;;;;7.68;4.55;;;8.70;99.90;;;;;;5039754;28;20072;-64
2020/12/17 01:28:59;;;;;;;6.25;4.13;;;8.60;99.90;;;;;;5058170;28;20025;-63
2020/12/17 01:31:25;;;;;;;7.15;4.22;;;8.70;99.90;;;;;;5045481;28;20380;-62
2020/12/17 01:33:50;;;;;;;9.55;4.35;;;8.70;99.90;;;;;;5028576;28;20032;-62
2020/12/17 01:36:16;;;;;;;7.07;4.35;;;8.80;99.90;;;;;;5044075;28;20040;-63
2020/12/17 01:38:42;;;;;;;7.55;4.45;;;8.80;99.90;;;;;;5040748;28;20068;-63
2020/12/17 01:41:12;;;;;;;14.05;3.83;;;8.80;99.90;;;;;;5042695;28;20028;-62
2020/12/17 01:43:43;;;;;;;5.78;3.65;;;8.90;99.90;;;;;;5039160;28;20021;-62
2020/12/17 01:46:10;;;;;;;7.45;3.92;;;8.90;99.90;;;;;;5039373;28;20113;-63
2020/12/17 01:48:36;;;;;;;6.13;3.65;;;8.90;99.90;;;;;;5041644;28;20041;-63
2020/12/17 01:51:03;;;;;;;7.25;3.78;;;9.00;99.90;;;;;;5034180;28;20029;-62
2020/12/17 01:53:34;;;;;;;6.35;3.97;;;9.00;99.90;;;;;;5025022;28;20510;-61
2020/12/17 01:56:01;;;;;;;5.88;4.30;;;9.00;99.90;;;;;;5025968;28;20034;-62
2020/12/17 01:58:31;;;;;;;7.63;4.40;;;9.00;99.90;;;;;;5031744;28;20029;-63
2020/12/17 02:00:59;;;;;;;6.97;4.18;;;9.10;99.90;;;;;;5044073;28;20429;-62
2020/12/17 02:03:25;;;;;;;8.77;4.43;;;9.00;99.90;;;;;;5058212;28;20028;-63
2020/12/17 02:05:50;;;;;;;7.60;4.63;;;9.00;99.90;;;;;;5041890;28;20390;-62
2020/12/17 02:08:19;;;;;;;5.88;4.25;;;9.00;99.90;;;;;;5039440;28;20124;-62
2020/12/17 02:10:45;;;;;;;7.10;4.45;;;9.00;99.90;;;;;;5046350;28;20032;-63
2020/12/17 02:13:13;;;;;;;6.07;3.88;;;9.10;99.90;;;;;;5042241;28;20030;-63
2020/12/17 02:15:39;;;;;;;7.63;4.55;;;9.20;99.90;;;;;;5055068;28;20482;-63
2020/12/17 02:18:07;;;;;;;10.57;4.38;;;9.10;99.90;;;;;;5042078;28;20022;-63
2020/12/17 02:20:33;;;;;;;9.20;4.72;;;9.10;99.90;;;;;;5039764;28;20108;-62
2020/12/17 02:22:58;;;;;;;5.88;3.80;;;9.10;99.90;;;;;;5045683;28;20484;-63
2020/12/17 02:25:24;;;;;;;6.60;4.45;;;9.10;99.90;;;;;;5031148;28;20026;-63
2020/12/17 02:27:50;;;;;;;8.50;4.70;;;9.10;99.90;;;;;;5023312;28;20025;-63
2020/12/17 02:30:15;;;;;;;7.10;4.28;;;9.10;99.90;;;;;;5034803;28;20029;-61
2020/12/17 02:32:41;;;;;;;7.55;5.53;;;9.10;99.90;;;;;;5062450;28;20503;-62
2020/12/17 02:35:08;;;;;;;13.77;6.63;;;9.10;99.90;;;;;;5036245;28;20073;-63
2020/12/17 02:37:36;;;;;;;10.65;5.30;;;9.10;99.90;;;;;;5035108;28;20030;-63
2020/12/17 02:40:03;;;;;;;5.90;4.43;;;9.20;99.90;;;;;;5043000;28;20121;-62
2020/12/17 02:42:28;;;;;;;11.40;4.68;;;9.10;99.90;;;;;;5029045;28;20039;-63
2020/12/17 02:44:54;;;;;;;7.60;4.45;;;9.10;99.90;;;;;;5047292;28;20111;-62
2020/12/17 02:47:19;;;;;;;7.03;4.45;;;9.00;99.90;;;;;;5039743;28;20025;-63
2020/12/17 02:49:47;;;;;;;8.27;5.28;;;9.10;99.90;;;;;;5062575;28;20486;-63
2020/12/17 02:52:16;;;;;;;9.07;4.97;;;9.00;99.90;;;;;;5028299;28;20089;-63
2020/12/17 02:54:41;;;;;;;9.05;4.63;;;9.00;99.90;;;;;;5039300;28;20072;-63
2020/12/17 02:57:07;;;;;;;10.35;4.95;;;9.00;99.90;;;;;;5035520;28;20049;-62
2020/12/17 02:59:32;;;;;;;7.80;5.15;;;8.90;99.90;;;;;;5038642;28;20021;-63
2020/12/17 03:01:58;;;;;;;7.93;5.10;;;8.90;99.90;;;;;;5041294;28;20029;-63
2020/12/17 03:04:24;;;;;;;7.85;5.00;;;8.90;99.90;;;;;;5039144;28;20065;-64
2020/12/17 03:06:49;;;;;;;9.98;5.15;;;8.90;99.90;;;;;;5040305;28;20053;-63
2020/12/17 03:09:16;;;;;;;6.53;4.78;;;8.80;99.90;;;;;;5028642;28;20050;-62
2020/12/17 03:11:42;;;;;;;9.40;4.95;;;8.80;99.90;;;;;;5039497;28;20018;-62
2020/12/17 03:14:07;;;;;;;7.75;5.43;;;8.90;99.90;;;;;;5038825;28;20113;-63
2020/12/17 03:16:33;;;;;;;7.57;5.18;;;8.80;99.90;;;;;;5039272;28;20502;-63
2020/12/17 03:19:01;;;;;;;8.45;5.22;;;8.80;99.90;;;;;;5062402;28;20035;-63
2020/12/17 03:21:27;;;;;;;10.13;5.20;;;8.80;99.90;;;;;;5036916;28;20032;-63
2020/12/17 03:23:55;;;;;;;8.90;4.95;;;8.70;99.90;;;;;;5039878;28;20051;-62
2020/12/17 03:26:21;;;;;;;9.85;4.93;;;8.70;99.90;;;;;;5043093;28;20049;-63
2020/12/17 03:28:47;;;;;;;8.45;4.75;;;8.70;99.90;;;;;;5038805;28;20021;-62
2020/12/17 03:31:12;;;;;;;7.05;4.93;;;8.70;99.90;;;;;;5036424;28;20022;-62
2020/12/17 03:33:38;;;;;;;12.57;5.00;;;8.70;99.90;;;;;;5034401;28;20657;-64
2020/12/17 03:36:04;;;;;;;8.10;4.82;;;8.60;99.90;;;;;;5039625;28;20048;-63
2020/12/17 03:38:29;;;;;;;8.45;5.43;;;8.60;99.90;;;;;;5033297;28;20018;-63
2020/12/17 03:40:55;;;;;;;9.82;4.95;;;8.60;99.90;;;;;;5041558;28;20511;-64
2020/12/17 03:43:20;;;;;;;7.55;5.20;;;8.60;99.90;;;;;;5043188;28;20017;-63
2020/12/17 03:45:46;;;;;;;6.70;4.95;;;8.60;99.90;;;;;;5039870;28;20044;-63
2020/12/17 03:48:12;;;;;;;8.05;4.68;;;8.60;99.90;;;;;;5048332;28;20501;-63
2020/12/17 03:50:37;;;;;;;6.20;4.32;;;8.50;99.90;;;;;;5030028;28;20040;-63
2020/12/17 03:53:03;;;;;;;6.50;4.70;;;8.60;99.90;;;;;;5049904;28;20530;-64
2020/12/17 03:55:29;;;;;;;9.60;4.70;;;8.50;99.90;;;;;;5032633;28;20037;-64
2020/12/17 03:57:54;;;;;;;8.13;4.80;;;8.50;99.90;;;;;;5044132;28;20052;-63
2020/12/17 04:00:20;;;;;;;6.57;4.43;;;8.60;99.90;;;;;;5045837;28;20061;-63
2020/12/17 04:02:46;;;;;;;12.68;4.82;;;8.60;99.90;;;;;;5045339;28;20399;-63
2020/12/17 04:05:11;;;;;;;6.10;4.25;;;8.50;99.90;;;;;;5041884;28;20017;-63
2020/12/17 04:07:37;;;;;;;7.72;4.32;;;8.60;99.90;;;;;;5037274;28;20029;-63
2020/12/17 04:10:03;;;;;;;7.47;4.50;;;8.60;99.90;;;;;;5032598;28;20013;-64
2020/12/17 04:12:31;;;;;;;6.32;4.32;;;8.60;99.90;;;;;;5045300;28;20496;-63
2020/12/17 04:14:56;;;;;;;9.13;5.30;;;8.50;99.90;;;;;;5042144;28;20022;-64
2020/12/17 04:17:22;;;;;;;6.65;4.47;;;8.60;99.90;;;;;;5045360;28;20510;-63
2020/12/17 04:19:48;;;;;;;8.63;4.50;;;8.50;99.90;;;;;;5041851;28;20033;-62
2020/12/17 04:22:16;;;;;;;10.18;4.85;;;8.60;99.90;;;;;;5041690;28;20044;-61
2020/12/17 04:24:46;;;;;;;7.28;4.15;;;8.60;99.90;;;;;;5044305;28;20035;-63
2020/12/17 04:27:13;;;;;;;7.05;4.60;;;8.50;99.90;;;;;;5045084;28;20021;-63
2020/12/17 04:29:39;;;;;;;9.00;4.70;;;8.50;99.90;;;;;;5042047;28;20029;-62
2020/12/17 04:32:04;;;;;;;6.82;4.97;;;8.50;99.90;;;;;;5043782;28;20081;-63
2020/12/17 04:34:31;;;;;;;7.65;4.72;;;8.50;99.90;;;;;;5045021;28;20033;-62
2020/12/17 04:36:57;;;;;;;9.88;4.95;;;8.40;99.90;;;;;;5019930;28;20041;-63
2020/12/17 04:39:23;;;;;;;8.32;4.78;;;8.50;99.90;;;;;;5024674;28;20036;-64
2020/12/17 04:41:51;;;;;;;10.02;5.18;;;8.50;99.90;;;;;;5042473;28;20017;-62
2020/12/17 04:44:17;;;;;;;8.52;4.47;;;8.50;99.90;;;;;;5045122;28;20037;-63
2020/12/17 04:46:50;;;;;;;7.65;4.72;;;8.40;99.90;;;;;;5042808;28;20506;-63
2020/12/17 04:49:19;;;;;;;6.93;4.78;;;8.40;99.90;;;;;;5040551;28;20033;-64
2020/12/17 04:51:47;;;;;;;8.00;4.72;;;8.40;99.90;;;;;;5037691;28;20025;-63
2020/12/17 04:54:15;;;;;;;9.70;4.55;;;8.40;99.90;;;;;;5043967;28;20462;-62
2020/12/17 04:56:42;;;;;;;8.32;4.65;;;8.40;99.90;;;;;;5048588;28;20032;-64
2020/12/17 04:59:09;;;;;;;8.80;4.68;;;8.40;99.90;;;;;;5051100;28;20033;-62
2020/12/17 05:01:41;;;;;;;7.60;4.72;;;8.40;99.90;;;;;;5048807;28;20025;-61
2020/12/17 05:04:08;;;;;;;8.60;4.90;;;8.40;99.90;;;;;;5040907;28;20100;-62
2020/12/17 05:06:38;;;;;;;6.45;4.50;;;8.40;99.90;;;;;;5056822;28;20029;-63
2020/12/17 05:09:05;;;;;;;10.98;4.65;;;8.40;99.90;;;;;;5041425;28;20780;-61
2020/12/17 05:11:31;;;;;;;10.10;6.00;;;8.40;99.90;;;;;;5046384;28;20026;-62
2020/12/17 05:13:59;;;;;;;6.00;4.00;;;8.40;99.90;;;;;;5048106;28;20084;-62
2020/12/17 05:16:24;;;;;;;9.85;5.10;;;8.40;99.90;;;;;;5041277;28;20072;-61
2020/12/17 05:18:50;;;;;;;11.90;4.85;;;8.40;99.90;;;;;;5033585;28;20065;-61
2020/12/17 05:21:15;;;;;;;8.00;4.88;;;8.50;99.90;;;;;;5028499;28;20037;-62
2020/12/17 05:23:44;;;;;;;11.68;5.47;;;8.60;99.90;;;;;;5029565;28;20087;-62
2020/12/17 05:26:10;;;;;;;8.80;4.40;;;8.50;99.90;;;;;;5026086;28;20124;-61
2020/12/17 05:28:37;;;;;;;10.27;7.07;;;8.50;99.90;;;;;;5023773;28;20542;-61
2020/12/17 05:31:03;;;;;;;10.32;5.20;;;8.50;99.90;;;;;;5031986;28;20029;-62
2020/12/17 05:33:28;;;;;;;89.82;51.30;;;8.50;99.90;;;;;;5032958;28;20441;-63
2020/12/17 05:35:54;;;;;;;58.78;39.53;;;8.50;99.90;;;;;;5032129;28;20033;-62
2020/12/17 05:38:25;;;;;;;27.70;19.00;;;8.50;99.90;;;;;;5011548;28;20407;-61
2020/12/17 05:40:52;;;;;;;11.90;8.27;;;8.40;99.90;;;;;;5025937;28;20022;-63
2020/12/17 05:43:24;;;;;;;14.52;9.98;;;8.40;99.90;;;;;;5032007;28;20505;-62
2020/12/17 05:45:50;;;;;;;30.08;18.88;;;8.40;99.90;;;;;;5048151;28;20026;-63
2020/12/17 05:48:20;;;;;;;31.80;19.42;;;8.40;99.90;;;;;;5028904;28;20033;-61
2020/12/17 05:50:50;;;;;;;14.20;9.43;;;8.40;99.90;;;;;;5028337;28;20030;-63
2020/12/17 05:53:16;;;;;;;24.67;11.32;;;8.30;99.90;;;;;;5029025;28;20057;-62
2020/12/17 05:55:42;;;;;;;140.10;61.55;;;8.30;99.90;;;;;;5038621;28;20056;-60
2020/12/17 05:58:10;;;;;;;339.52;141.82;;;8.40;99.90;;;;;;5019023;28;20157;-63
2020/12/17 06:00:35;;;;;;;261.90;112.95;;;8.30;99.90;;;;;;5041770;28;20127;-63
2020/12/17 06:03:01;;;;;;;245.85;118.32;;;8.30;99.90;;;;;;5036768;28;20087;-61
2020/12/17 06:05:28;;;;;;;48.47;26.27;;;8.30;99.90;;;;;;5036085;28;20047;-61
2020/12/17 06:07:59;;;;;;;29.63;17.25;;;8.40;99.90;;;;;;5034876;28;20423;-62
2020/12/17 06:10:29;;;;;;;15.02;9.88;;;8.40;99.90;;;;;;5043762;28;20104;-61
2020/12/17 06:12:57;;;;;;;13.95;8.57;;;8.40;99.90;;;;;;5037631;28;20143;-62
2020/12/17 06:15:26;;;;;;;7.97;6.25;;;8.30;99.90;;;;;;5036748;28;20029;-62
2020/12/17 06:18:03;;;;;;;8.45;5.78;;;8.30;99.90;;;;;;5042530;28;20025;-60
2020/12/17 06:20:33;;;;;;;10.13;5.13;;;8.30;99.90;;;;;;5043458;28;20025;-61
2020/12/17 06:23:12;;;;;;;9.40;5.00;;;8.30;99.90;;;;;;5039175;28;20075;-62
2020/12/17 06:25:38;;;;;;;7.20;4.80;;;8.30;99.90;;;;;;5061288;28;20509;-62
2020/12/17 06:28:04;;;;;;;8.63;5.50;;;8.30;99.90;;;;;;5039251;28;20018;-63
2020/12/17 06:30:32;;;;;;;6.90;4.68;;;8.30;99.90;;;;;;5044363;28;20057;-62
2020/12/17 06:32:59;;;;;;;8.20;5.07;;;8.30;99.90;;;;;;5029983;28;20033;-62
2020/12/17 06:35:30;;;;;;;7.00;4.68;;;8.30;99.90;;;;;;5031901;28;20025;-63
2020/12/17 06:37:56;;;;;;;6.00;4.47;;;8.30;99.90;;;;;;5023022;28;20041;-61
2020/12/17 06:40:29;;;;;;;11.27;4.90;;;8.40;99.90;;;;;;5037544;28;20059;-62
2020/12/17 06:42:55;;;;;;;6.38;4.18;;;8.50;99.90;;;;;;5034270;28;20483;-63
2020/12/17 06:45:26;;;;;;;7.80;4.55;;;8.50;99.90;;;;;;5039209;28;20060;-62
2020/12/17 06:47:52;;;;;;;9.63;4.13;;;8.50;99.90;;;;;;5046725;28;20025;-63
2020/12/17 06:50:28;;;;;;;7.65;4.28;;;8.60;99.90;;;;;;5039474;28;21361;-61
2020/12/17 06:53:17;;;;;;;9.23;4.57;;;8.70;99.90;;;;;;5030305;28;20026;-62
2020/12/17 06:55:47;;;;;;;14.27;8.45;;;8.70;99.90;;;;;;5041777;28;20047;-61
2020/12/17 06:58:25;;;;;;;6.40;4.20;;;8.80;99.90;;;;;;5042600;28;20025;-63
2020/12/17 07:00:53;;;;;;;9.43;4.70;;;8.90;99.90;;;;;;5036331;28;20088;-63
2020/12/17 07:03:40;;;;;;;12.93;4.82;;;8.90;99.90;;;;;;5040737;28;20387;-63
2020/12/17 07:06:32;;;;;;;8.82;4.45;;;8.90;99.90;;;;;;5034511;28;20495;-62
2020/12/17 07:08:58;;;;;;;11.27;7.25;;;8.90;99.90;;;;;;5042991;28;20478;-62
2020/12/17 07:11:43;;;;;;;12.38;6.22;;;8.90;99.90;;;;;;5037875;28;20033;-63
2020/12/17 07:14:29;;;;;;;10.77;6.22;;;8.90;99.90;;;;;;5032775;28;20432;-63
2020/12/17 07:16:58;;;;;;;14.88;7.85;;;8.90;99.90;;;;;;5040100;28;20057;-63
2020/12/17 07:19:42;;;;;;;14.13;8.27;;;8.80;99.90;;;;;;5044346;28;20098;-62
2020/12/17 07:22:07;;;;;;;17.02;8.18;;;8.80;99.90;;;;;;5026712;28;20497;-62
2020/12/17 07:24:36;;;;;;;10.75;6.63;;;8.80;99.90;;;;;;5042372;28;20056;-64
2020/12/17 07:27:07;;;;;;;10.60;6.47;;;8.80;99.90;;;;;;5043075;28;20021;-61
2020/12/17 07:29:46;;;;;;;7.25;4.75;;;8.70;99.90;;;;;;5039683;28;20104;-60
2020/12/17 07:32:29;;;;;;;12.75;5.32;;;8.80;99.90;;;;;;5029575;28;20128;-62
2020/12/17 07:34:57;;;;;;;12.98;5.85;;;8.80;99.90;;;;;;5039893;28;20028;-61
2020/12/17 07:37:43;;;;;;;11.00;6.10;;;8.80;99.90;;;;;;5041967;28;20060;-62
2020/12/17 07:40:12;;;;;;;15.38;5.90;;;8.70;99.90;;;;;;5036153;28;20414;-63
2020/12/17 07:42:38;;;;;;;12.20;5.68;;;8.70;99.90;;;;;;5045615;28;20025;-61
2020/12/17 07:45:05;;;;;;;10.55;5.45;;;8.70;99.90;;;;;;5038008;28;20049;-61
2020/12/17 07:47:31;;;;;;;13.82;7.47;;;8.70;99.90;;;;;;5045019;28;20032;-63
2020/12/17 07:49:57;;;;;;;11.85;6.30;;;8.70;99.90;;;;;;5039970;28;20021;-62
2020/12/17 07:52:34;;;;;;;12.10;6.82;;;8.70;99.90;;;;;;5026395;28;20025;-62
2020/12/17 07:55:01;;;;;;;23.88;15.70;;;8.70;99.90;;;;;;5038125;28;20030;-62
2020/12/17 07:57:27;;;;;;;28.83;18.35;;;8.70;99.90;;;;;;5043303;28;20033;-62
2020/12/17 07:59:53;;;;;;;31.75;19.35;;;8.70;99.90;;;;;;5018469;28;20030;-61
2020/12/17 08:02:19;;;;;;;53.38;33.63;;;8.70;99.90;;;;;;4980091;28;20171;-64
2020/12/17 08:04:53;;;;;;;26.15;14.60;;;8.60;99.90;;;;;;5030557;28;20111;-60
2020/12/17 08:07:20;;;;;;;24.40;16.58;;;8.70;99.90;;;;;;5011943;28;20120;-60
2020/12/17 08:10:01;;;;;;;20.55;12.68;;;8.70;99.90;;;;;;5020377;28;20121;-62
2020/12/17 08:12:27;;;;;;;12.68;8.90;;;8.70;99.90;;;;;;5017419;28;20087;-64
2020/12/17 08:15:09;;;;;;;11.98;6.70;;;8.70;99.90;;;;;;5024721;28;20108;-64
2020/12/17 08:17:35;;;;;;;12.98;7.35;;;8.70;99.90;;;;;;5018926;28;20029;-64
2020/12/17 08:20:01;;;;;;;10.40;6.43;;;8.70;99.90;;;;;;5039890;28;20717;-64
2020/12/17 08:22:29;;;;;;;11.15;7.05;;;8.70;99.90;;;;;;5018950;28;20014;-64
2020/12/17 08:25:13;;;;;;;16.52;9.32;;;8.70;99.90;;;;;;5042835;28;20029;-63
2020/12/17 08:27:39;;;;;;;14.18;8.10;;;8.70;99.90;;;;;;5022990;28;20020;-63
2020/12/17 08:30:05;;;;;;;13.90;8.35;;;8.70;99.90;;;;;;5039459;28;20107;-62
2020/12/17 08:32:31;;;;;;;17.15;9.70;;;8.70;99.90;;;;;;5020952;28;20018;-62
2020/12/17 08:34:57;;;;;;;13.68;8.00;;;8.70;99.90;;;;;;5019733;28;20022;-63
2020/12/17 08:37:24;;;;;;;18.83;11.52;;;8.70;99.90;;;;;;5020520;28;20087;-63
2020/12/17 08:39:57;;;;;;;27.08;16.00;;;8.70;99.90;;;;;;5016106;28;20044;-63
2020/12/17 08:42:27;;;;;;;22.77;13.80;;;8.80;99.90;;;;;;5026824;28;20112;-63
2020/12/17 08:44:55;;;;;;;15.50;8.00;;;8.80;99.90;;;;;;5027791;28;20508;-63
2020/12/17 08:47:21;;;;;;;16.73;8.13;;;8.90;99.90;;;;;;5034290;28;20029;-65
2020/12/17 08:49:47;;;;;;;12.18;7.47;;;8.90;99.90;;;;;;5025171;28;20442;-64
2020/12/17 08:52:26;;;;;;;10.68;6.95;;;9.00;99.90;;;;;;5010048;28;20017;-64
2020/12/17 08:55:01;;;;;;;10.48;6.22;;;9.00;99.90;;;;;;5011661;28;20030;-63
2020/12/17 08:57:27;;;;;;;9.70;5.00;;;9.00;99.90;;;;;;5015401;28;20590;-63
2020/12/17 08:59:53;;;;;;;11.02;6.75;;;9.10;99.90;;;;;;5002047;28;20030;-64
2020/12/17 09:02:26;;;;;;;13.23;5.78;;;9.10;99.90;;;;;;5011068;28;20033;-63
2020/12/17 09:04:55;;;;;;;14.13;6.22;;;9.00;99.90;;;;;;5015348;28;20088;-63
2020/12/17 09:07:28;;;;;;;8.45;5.00;;;9.00;99.90;;;;;;5008887;28;20125;-64
2020/12/17 09:10:15;;;;;;;6.05;4.45;;;9.00;99.90;;;;;;5018160;28;20014;-63
2020/12/17 09:12:41;;;;;;;6.82;4.40;;;9.00;99.90;;;;;;5013196;28;20014;-63
2020/12/17 09:15:08;;;;;;;8.50;4.20;;;9.00;99.90;;;;;;5020940;28;20085;-61
2020/12/17 09:17:34;;;;;;;10.05;4.53;;;9.00;99.90;;;;;;5022436;28;20072;-63
2020/12/17 09:20:00;;;;;;;9.75;4.40;;;9.00;99.90;;;;;;5023705;28;20029;-63
2020/12/17 09:22:34;;;;;;;8.63;4.10;;;9.00;99.90;;;;;;5013401;28;20036;-64
2020/12/17 09:25:00;;;;;;;16.48;4.97;;;9.10;99.90;;;;;;5019906;28;20014;-63
2020/12/17 09:27:27;;;;;;;14.27;5.75;;;9.10;99.90;;;;;;5009336;28;20130;-63
2020/12/17 09:29:58;;;;;;;11.35;4.53;;;9.10;99.90;;;;;;5032171;28;20013;-63
2020/12/17 09:32:24;;;;;;;15.95;5.47;;;9.20;99.90;;;;;;5007961;28;20512;-63
2020/12/17 09:34:50;;;;;;;8.13;5.07;;;9.10;99.90;;;;;;5016676;28;20033;-62
2020/12/17 09:37:16;;;;;;;7.63;4.47;;;9.10;99.90;;;;;;5010177;28;20034;-63
2020/12/17 09:39:45;;;;;;;8.82;5.20;;;9.10;99.90;;;;;;5001584;28;20045;-64
2020/12/17 09:42:16;;;;;;;7.75;4.90;;;9.10;99.90;;;;;;5012058;28;20167;-64
2020/12/17 09:44:42;;;;;;;15.43;7.85;;;9.10;99.90;;;;;;5016601;28;20112;-64
2020/12/17 09:47:08;;;;;;;13.02;4.90;;;9.20;99.90;;;;;;5010944;28;20032;-62
2020/12/17 09:49:36;;;;;;;21.33;9.57;;;9.20;99.90;;;;;;5019416;28;20021;-63
2020/12/17 09:52:06;;;;;;;25.73;12.90;;;9.30;99.90;;;;;;5008229;28;20109;-62
2020/12/17 09:54:33;;;;;;;11.77;6.65;;;9.30;99.90;;;;;;4998219;28;20377;-64
2020/12/17 09:57:04;;;;;;;16.17;6.70;;;9.40;99.90;;;;;;5017032;28;20026;-64
2020/12/17 09:59:29;;;;;;;8.95;5.53;;;9.40;99.90;;;;;;5010496;28;20105;-64
2020/12/17 10:01:59;;;;;;;16.60;6.82;;;9.40;99.90;;;;;;5002330;28;20196;-64
2020/12/17 10:04:26;;;;;;;7.85;5.07;;;9.50;99.90;;;;;;5015279;28;20022;-63
2020/12/17 10:06:52;;;;;;;9.88;5.68;;;9.50;99.90;;;;;;5012849;28;20470;-63
2020/12/17 10:09:17;;;;;;;9.10;5.05;;;9.50;99.90;;;;;;5014043;28;20600;-64
2020/12/17 10:11:50;;;;;;;13.02;5.45;;;9.50;99.90;;;;;;5006673;28;20050;-64
2020/12/17 10:14:17;;;;;;;16.35;5.90;;;9.60;99.90;;;;;;5015324;28;20600;-63
2020/12/17 10:16:43;;;;;;;10.38;6.80;;;9.80;99.90;;;;;;5010671;28;20034;-64
2020/12/17 10:19:09;;;;;;;12.80;5.32;;;9.90;99.90;;;;;;4999444;28;20136;-64
2020/12/17 10:21:35;;;;;;;9.18;4.53;;;10.00;99.90;;;;;;5012689;28;20033;-64
2020/12/17 10:24:05;;;;;;;9.40;4.80;;;10.10;99.90;;;;;;5015131;28;20021;-64
2020/12/17 10:26:31;;;;;;;7.60;4.38;;;10.10;99.90;;;;;;5006236;28;20076;-63
2020/12/17 10:28:58;;;;;;;7.32;5.43;;;10.10;99.90;;;;;;5000564;28;20097;-63
2020/12/17 10:31:25;;;;;;;9.00;5.00;;;10.10;99.90;;;;;;5014040;28;20112;-62
2020/12/17 10:33:50;;;;;;;13.82;7.28;;;10.10;99.90;;;;;;5002361;28;20030;-63
2020/12/17 10:36:16;;;;;;;22.38;11.15;;;10.20;99.90;;;;;;5011529;28;20506;-63
2020/12/17 10:38:42;;;;;;;18.27;9.27;;;10.20;99.90;;;;;;5002881;28;20033;-63
2020/12/17 10:41:07;;;;;;;14.13;7.72;;;10.30;99.90;;;;;;4991688;28;20457;-64
2020/12/17 10:43:33;;;;;;;15.07;7.03;;;10.20;99.90;;;;;;5010665;28;20508;-62
2020/12/17 10:45:59;;;;;;;14.32;7.63;;;10.20;99.90;;;;;;4979858;28;20018;-61
2020/12/17 10:48:24;;;;;;;42.13;19.70;;;10.30;99.90;;;;;;5030985;28;20413;-64
2020/12/17 10:50:50;;;;;;;22.55;10.15;;;10.30;99.90;;;;;;5021629;28;20628;-63
2020/12/17 10:53:16;;;;;;;42.15;19.33;;;10.20;99.90;;;;;;5033080;28;20025;-63
2020/12/17 10:55:42;;;;;;;13.55;6.28;;;10.20;99.90;;;;;;5026756;28;20026;-62
2020/12/17 10:58:08;;;;;;;28.10;11.68;;;10.20;99.90;;;;;;5026005;28;20104;-65
2020/12/17 11:00:34;;;;;;;26.15;9.35;;;10.20;99.90;;;;;;5010284;28;20069;-62
2020/12/17 11:03:00;;;;;;;26.70;10.48;;;10.10;99.90;;;;;;5029965;28;20032;-62
2020/12/17 11:05:26;;;;;;;39.65;15.15;;;10.10;99.90;;;;;;5020565;28;20108;-62
2020/12/17 11:07:52;;;;;;;29.75;13.82;;;10.20;99.90;;;;;;5027856;28;20109;-64
2020/12/17 11:10:17;;;;;;;45.45;23.67;;;10.20;99.90;;;;;;5013195;28;20140;-62
2020/12/17 11:12:43;;;;;;;16.00;7.00;;;10.30;99.90;;;;;;5021537;28;20030;-61
2020/12/17 11:15:08;;;;;;;32.13;14.27;;;10.30;99.90;;;;;;5019388;28;20036;-63
2020/12/17 11:17:34;;;;;;;9.75;4.40;;;10.50;99.90;;;;;;5038059;28;20020;-64
2020/12/17 11:20:00;;;;;;;4.28;2.05;;;10.60;99.90;;;;;;5019213;28;20036;-63
2020/12/17 11:22:25;;;;;;;4.50;1.98;;;10.70;99.90;;;;;;5029970;28;20507;-64
2020/12/17 11:24:51;;;;;;;5.32;2.33;;;10.80;99.90;;;;;;5021667;28;20025;-64
2020/12/17 11:27:16;;;;;;;9.43;3.55;;;10.90;99.90;;;;;;5032090;28;20037;-64
2020/12/17 11:29:42;;;;;;;10.02;5.25;;;11.00;99.90;;;;;;5026817;28;20550;-63
2020/12/17 11:32:07;;;;;;;5.93;3.60;;;11.20;99.90;;;;;;5037267;28;20104;-63
2020/12/17 11:34:33;;;;;;;6.78;2.70;;;11.20;99.90;;;;;;5024380;28;20014;-64
2020/12/17 11:36:59;;;;;;;6.95;3.03;;;11.10;99.90;;;;;;5019053;28;20026;-63
2020/12/17 11:39:25;;;;;;;5.40;3.80;;;11.10;99.90;;;;;;5027499;28;20056;-64
2020/12/17 11:41:50;;;;;;;8.32;4.75;;;11.10;99.90;;;;;;5004512;28;20069;-62
2020/12/17 11:44:16;;;;;;;9.23;3.92;;;11.00;99.90;;;;;;5032949;28;20048;-64
2020/12/17 11:46:43;;;;;;;10.82;4.85;;;11.00;99.90;;;;;;5022407;28;20030;-64
2020/12/17 11:49:09;;;;;;;4.60;2.20;;;10.90;99.90;;;;;;5039267;28;20117;-63
2020/12/17 11:51:34;;;;;;;15.05;5.32;;;10.90;99.90;;;;;;5026710;28;20026;-64
2020/12/17 11:54:00;;;;;;;14.95;8.02;;;11.00;99.90;;;;;;5032709;28;20608;-65
2020/12/17 11:56:25;;;;;;;9.75;4.32;;;11.10;99.90;;;;;;5038869;28;20108;-63
2020/12/17 11:58:51;;;;;;;2.58;2.00;;;11.30;99.90;;;;;;5039929;28;20045;-64
2020/12/17 12:01:16;;;;;;;5.32;2.80;;;11.40;99.90;;;;;;5024105;28;20050;-64
2020/12/17 12:03:42;;;;;;;3.58;2.30;;;11.50;99.90;;;;;;5042006;28;20033;-63
2020/12/17 12:06:13;;;;;;;5.05;2.90;;;11.50;99.90;;;;;;5031443;28;20052;-64
2020/12/17 12:08:38;;;;;;;10.73;3.53;;;11.60;99.90;;;;;;5037458;28;20036;-64
2020/12/17 12:11:04;;;;;;;12.05;5.80;;;11.50;99.90;;;;;;5041360;28;20025;-64
2020/12/17 12:13:29;;;;;;;10.13;5.30;;;11.40;99.90;;;;;;5043302;28;20043;-65
2020/12/17 12:15:55;;;;;;;9.43;4.97;;;11.30;99.90;;;;;;5025703;28;20040;-64
2020/12/17 12:18:21;;;;;;;14.43;7.03;;;11.30;99.90;;;;;;5020480;28;20060;-63
2020/12/17 12:20:46;;;;;;;18.77;9.75;;;11.20;99.90;;;;;;5028050;28;20045;-65
2020/12/17 12:23:15;;;;;;;17.83;8.40;;;11.20;99.90;;;;;;5024657;28;20033;-64
2020/12/17 12:25:41;;;;;;;15.50;6.97;;;11.20;99.90;;;;;;5013535;28;20053;-64
2020/12/17 12:28:07;;;;;;;66.95;29.38;;;11.20;99.90;;;;;;5014212;28;20054;-62
2020/12/17 12:30:32;;;;;;;39.40;18.15;;;11.20;99.90;;;;;;5012616;28;20587;-63
2020/12/17 12:32:58;;;;;;;17.92;7.93;;;11.20;99.90;;;;;;5013719;28;20437;-63
2020/12/17 12:35:23;;;;;;;25.42;11.15;;;11.20;99.90;;;;;;5010500;28;20029;-63
2020/12/17 12:37:49;;;;;;;28.83;12.32;;;11.10;99.90;;;;;;5027881;28;20126;-63
2020/12/17 12:40:15;;;;;;;15.70;6.78;;;11.10;99.90;;;;;;5014276;28;20049;-62
2020/12/17 12:42:40;;;;;;;29.05;12.38;;;11.10;99.90;;;;;;4993778;28;20133;-63
2020/12/17 12:45:06;;;;;;;22.42;7.78;;;11.10;99.90;;;;;;5016896;28;20084;-63
2020/12/17 12:47:31;;;;;;;16.35;7.43;;;11.10;99.90;;;;;;5016423;28;20083;-63
2020/12/17 12:49:57;;;;;;;22.40;8.82;;;11.00;99.90;;;;;;5015200;28;20025;-63